Time;durP1;ratioP1;P1;durP2;ratioP2;P2;SDS_P1;SDS_P2;PMS_P1;PMS_P2;Temp;Humidity;BMP_temperature;BMP_pressure;BME280_temperature;BME280_humidity;BME280_pressure;Samples;Min_cycle;Max_cycle;Signal;HPM_P1;HPM_P2
2021/07/14 00:02:14;;;;;;;12.40;11.27;;;;;;;22.28;70.70;100911.97;3596969;40;20249;-82
2021/07/14 00:04:40;;;;;;;12.73;11.63;;;;;;;22.28;71.00;100913.72;3598055;40;20231;-82
2021/07/14 00:07:05;;;;;;;12.13;10.97;;;;;;;22.26;70.79;100899.88;3597462;40;20519;-82
2021/07/14 00:09:31;;;;;;;11.67;10.67;;;;;;;22.23;70.71;100907.78;3597833;40;20321;-81
2021/07/14 00:11:58;;;;;;;12.10;11.00;;;;;;;22.19;71.02;100904.41;3598717;40;20240;-82
2021/07/14 00:15:00;;;;;;;12.20;11.03;;;;;;;22.18;71.06;100900.09;3596723;40;20273;-82
2021/07/14 00:17:49;;;;;;;15.03;13.50;;;;;;;22.16;72.02;100898.41;3598139;40;20245;-81
2021/07/14 00:22:57;;;;;;;13.40;12.13;;;;;;;22.10;71.80;100885.50;3596707;40;20637;-82
2021/07/14 00:25:23;;;;;;;11.17;10.10;;;;;;;22.09;71.77;100881.19;3597600;40;20221;-81
2021/07/14 00:27:49;;;;;;;12.47;11.27;;;;;;;22.07;72.08;100881.22;3588222;40;20217;-82
2021/07/14 00:30:23;;;;;;;11.20;10.23;;;;;;;22.06;71.95;100879.53;3598111;40;20304;-82
2021/07/14 00:32:48;;;;;;;10.50;9.60;;;;;;;22.05;71.63;100869.13;3597045;40;20700;-81
2021/07/14 00:35:14;;;;;;;10.80;9.80;;;;;;;22.08;71.64;100866.44;3596283;40;20258;-81
2021/07/14 00:37:39;;;;;;;12.80;11.63;;;;;;;22.09;72.00;100858.59;3596687;40;20236;-81
2021/07/14 00:40:08;;;;;;;11.13;10.03;;;;;;;22.10;71.65;100856.81;3596291;40;20307;-82
2021/07/14 00:42:33;;;;;;;11.67;10.73;;;;;;;22.06;71.89;100850.84;3598554;40;20298;-81
2021/07/14 00:44:59;;;;;;;12.13;11.03;;;;;;;22.06;72.01;100842.16;3595822;40;20228;-81
2021/07/14 00:47:29;;;;;;;11.47;10.47;;;;;;;22.04;71.97;100841.34;3595984;40;20225;-81
2021/07/14 00:49:54;;;;;;;12.37;11.27;;;;;;;22.02;71.94;100846.59;3594451;40;20221;-79
2021/07/14 00:52:20;;;;;;;11.35;10.35;;;;;;;22.03;71.96;100847.47;3586529;40;20258;-81
2021/07/14 00:54:45;;;;;;;11.27;10.37;;;;;;;22.02;71.85;100851.81;3596689;40;20241;-81
2021/07/14 00:57:14;;;;;;;11.57;10.67;;;;;;;22.03;72.03;100855.28;3597520;40;20236;-82
2021/07/14 00:59:40;;;;;;;12.03;10.93;;;;;;;22.03;72.05;100857.91;3597073;40;20671;-82
2021/07/14 01:02:05;;;;;;;11.60;10.47;;;;;;;22.01;72.00;100851.84;3597036;40;20245;-82
2021/07/14 01:04:31;;;;;;;10.60;9.70;;;;;;;22.01;71.69;100846.63;3596099;40;20240;-81
2021/07/14 01:07:04;;;;;;;10.43;9.50;;;;;;;22.00;72.12;100855.34;3594860;40;20496;-81
2021/07/14 01:09:39;;;;;;;9.77;8.82;;;;;;;21.99;71.95;100864.94;3594812;40;20221;-81
2021/07/14 01:12:19;;;;;;;13.02;11.82;;;;;;;22.01;71.89;100885.75;3595291;40;20639;-82
2021/07/14 01:14:52;;;;;;;12.87;11.77;;;;;;;22.07;71.51;100902.09;3588061;40;20237;-81
2021/07/14 01:17:20;;;;;;;11.40;10.47;;;;;;;22.05;71.73;100890.00;3597168;40;20610;-81
2021/07/14 01:20:09;;;;;;;13.13;11.97;;;;;;;22.02;71.62;100879.66;3596649;40;20241;-81
2021/07/14 01:22:56;;;;;;;12.20;11.03;;;;;;;22.00;71.65;100887.53;3596719;40;20249;-81
2021/07/14 01:25:53;;;;;;;10.67;9.77;;;;;;;22.01;71.38;100872.72;3596838;40;20225;-81
2021/07/14 01:28:22;;;;;;;12.77;11.57;;;;;;;21.98;71.85;100868.44;3597607;40;20229;-81
2021/07/14 01:30:51;;;;;;;12.10;11.00;;;;;;;21.96;72.05;100866.75;3585725;40;20237;-81
2021/07/14 01:33:20;;;;;;;11.43;10.43;;;;;;;21.95;71.82;100871.16;3595329;40;20277;-81
2021/07/14 01:35:47;;;;;;;9.53;8.73;;;;;;;21.97;71.53;100861.50;3593439;40;20233;-80
2021/07/14 01:38:14;;;;;;;10.70;9.80;;;;;;;21.98;71.28;100862.38;3595668;40;20260;-81
2021/07/14 01:40:41;;;;;;;10.83;9.93;;;;;;;21.97;71.55;100855.47;3594901;40;20241;-80
2021/07/14 01:43:08;;;;;;;11.07;10.13;;;;;;;21.96;71.43;100853.72;3594716;40;20636;-81
2021/07/14 01:45:37;;;;;;;10.90;10.00;;;;;;;21.95;71.71;100847.66;3595335;40;20233;-81
2021/07/14 01:48:04;;;;;;;12.77;11.53;;;;;;;21.95;71.81;100845.06;3585934;40;20244;-81
2021/07/14 01:50:31;;;;;;;13.53;12.23;;;;;;;21.94;72.20;100839.88;3595054;40;20248;-81
2021/07/14 01:52:57;;;;;;;8.20;7.50;;;;;;;21.96;71.85;100841.53;3595865;40;20245;-80
2021/07/14 01:55:24;;;;;;;11.43;10.52;;;;;;;21.95;72.02;100834.63;3595924;40;20248;-81
2021/07/14 01:57:51;;;;;;;11.27;10.23;;;;;;;21.93;71.99;100825.97;3596094;40;20310;-81
2021/07/14 02:00:17;;;;;;;12.00;11.00;;;;;;;21.90;72.44;100825.22;3595790;40;20228;-80
2021/07/14 02:05:28;;;;;;;11.60;10.50;;;;;;;21.91;71.98;100817.34;3597606;40;20240;-82
2021/07/14 02:07:53;;;;;;;11.77;10.63;;;;;;;21.89;72.02;100813.91;3597169;40;20871;-81
2021/07/14 02:10:19;;;;;;;13.97;12.67;;;;;;;21.89;72.15;100824.34;3596169;40;20230;-81
2021/07/14 02:12:47;;;;;;;10.23;9.40;;;;;;;21.86;72.32;100821.84;3595128;40;20248;-81
2021/07/14 02:15:13;;;;;;;12.90;11.70;;;;;;;21.81;72.28;100821.09;3594866;40;20249;-80
2021/07/14 02:17:52;;;;;;;11.03;10.10;;;;;;;21.85;72.28;100811.44;3595498;40;20236;-82
2021/07/14 02:20:20;;;;;;;13.13;12.07;;;;;;;21.80;72.61;100821.13;3586204;40;20719;-81
2021/07/14 02:22:49;;;;;;;11.33;10.33;;;;;;;21.79;72.36;100815.06;3595461;40;20240;-81
2021/07/14 02:25:15;;;;;;;11.93;10.80;;;;;;;21.79;72.07;100811.63;3594309;40;20282;-81
2021/07/14 02:27:41;;;;;;;11.17;10.17;;;;;;;21.78;71.96;100805.53;3595446;40;20266;-82
2021/07/14 02:30:18;;;;;;;11.53;10.53;;;;;;;21.83;71.63;100811.47;3596292;40;20221;-82
2021/07/14 02:32:48;;;;;;;9.40;8.47;;;;;;;21.79;72.10;100809.00;3595687;40;20507;-79
2021/07/14 02:35:13;;;;;;;11.87;10.87;;;;;;;21.74;72.16;100803.91;3585620;40;20612;-80
2021/07/14 02:37:52;;;;;;;12.80;11.70;;;;;;;21.73;72.47;100798.72;3595177;40;20233;-81
2021/07/14 02:40:24;;;;;;;12.60;11.40;;;;;;;21.70;72.51;100793.59;3586149;40;20228;-81
2021/07/14 02:42:54;;;;;;;14.13;12.73;;;;;;;21.70;72.64;100796.22;3586174;40;20244;-81
2021/07/14 02:45:21;;;;;;;12.87;11.67;;;;;;;21.69;72.62;100795.34;3586349;40;20241;-81
2021/07/14 02:47:47;;;;;;;11.70;10.60;;;;;;;21.69;72.52;100797.94;3593942;40;20234;-81
2021/07/14 02:50:19;;;;;;;9.43;8.40;;;;;;;21.70;72.23;100791.84;3595155;40;20315;-82
2021/07/14 02:52:48;;;;;;;11.87;10.73;;;;;;;21.69;72.69;100789.28;3596897;40;20334;-81
2021/07/14 02:55:21;;;;;;;15.73;14.03;;;;;;;21.65;72.90;100798.88;3597120;40;20616;-81
2021/07/14 02:57:51;;;;;;;10.17;9.27;;;;;;;21.65;72.80;100793.69;3597360;40;20239;-81
2021/07/14 03:00:17;;;;;;;13.23;11.70;;;;;;;21.64;72.61;100797.19;3596463;40;20237;-81
2021/07/14 03:02:44;;;;;;;12.07;11.07;;;;;;;21.60;73.04;100798.16;3588030;40;20236;-80
2021/07/14 03:05:11;;;;;;;12.40;11.40;;;;;;;21.60;72.72;100799.94;3597086;40;20256;-81
2021/07/14 03:07:37;;;;;;;11.97;10.97;;;;;;;21.60;73.14;100798.16;3597291;40;20268;-82
2021/07/14 03:10:04;;;;;;;11.63;10.53;;;;;;;21.58;72.71;100799.09;3597019;40;20229;-81
2021/07/14 03:12:30;;;;;;;12.70;11.50;;;;;;;21.58;73.11;100809.53;3587680;40;20602;-80
2021/07/14 03:15:01;;;;;;;11.60;10.50;;;;;;;21.55;72.96;100813.06;3593972;40;20233;-82
2021/07/14 03:17:29;;;;;;;12.23;11.18;;;;;;;21.54;72.72;100832.22;3596855;40;20528;-82
2021/07/14 03:19:55;;;;;;;13.43;12.23;;;;;;;21.55;73.22;100843.47;3586942;40;20259;-81
2021/07/14 03:22:22;;;;;;;11.70;10.77;;;;;;;21.53;72.88;100843.53;3596106;40;20232;-81
2021/07/14 03:24:48;;;;;;;13.00;11.75;;;;;;;21.56;73.08;100838.22;3595600;40;20283;-80
2021/07/14 03:27:14;;;;;;;12.33;10.93;;;;;;;21.53;72.64;100846.16;3586692;40;20228;-81
2021/07/14 03:29:41;;;;;;;11.70;10.70;;;;;;;21.55;72.72;100849.56;3584674;40;20672;-82
2021/07/14 03:32:08;;;;;;;12.07;10.97;;;;;;;21.56;72.94;100840.84;3594967;40;20248;-82
2021/07/14 03:34:36;;;;;;;12.97;11.77;;;;;;;21.55;72.96;100846.94;3586730;40;20240;-81
2021/07/14 03:37:06;;;;;;;9.57;8.80;;;;;;;21.58;72.81;100848.63;3595720;40;20233;-82
2021/07/14 03:39:38;;;;;;;9.87;8.93;;;;;;;21.59;72.74;100855.53;3596611;40;20239;-81
2021/07/14 03:42:05;;;;;;;12.60;11.50;;;;;;;21.57;72.81;100857.34;3597702;40;20310;-82
2021/07/14 03:44:33;;;;;;;12.67;11.60;;;;;;;21.59;72.29;100864.22;3596581;40;20295;-81
2021/07/14 03:46:59;;;;;;;12.90;11.60;;;;;;;21.62;72.46;100858.94;3596846;40;20257;-81
2021/07/14 03:49:27;;;;;;;15.43;12.53;;;;;;;21.62;72.56;100863.28;3586606;40;20233;-82
2021/07/14 03:51:54;;;;;;;12.17;11.17;;;;;;;21.63;72.49;100860.66;3595930;40;20240;-81
2021/07/14 03:54:21;;;;;;;12.43;11.33;;;;;;;21.66;72.71;100864.94;3596066;40;20261;-82
2021/07/14 03:56:47;;;;;;;14.20;12.90;;;;;;;21.67;72.68;100862.28;3596018;40;20269;-82
2021/07/14 03:59:12;;;;;;;14.57;13.17;;;;;;;21.65;73.13;100866.66;3595802;40;20954;-81
2021/07/14 04:01:39;;;;;;;14.80;13.43;;;;;;;21.64;73.01;100870.19;3595734;40;20236;-80
2021/07/14 04:04:05;;;;;;;16.30;14.70;;;;;;;21.62;72.79;100877.19;3595927;40;20225;-82
2021/07/14 04:06:34;;;;;;;15.77;14.13;;;;;;;21.67;72.74;100872.72;3594718;40;20511;-81
2021/07/14 04:09:21;;;;;;;14.83;13.53;;;;;;;21.64;73.28;100882.34;3594590;40;20275;-81
2021/07/14 04:11:49;;;;;;;13.80;12.60;;;;;;;21.67;72.55;100882.28;3584291;40;20307;-81
2021/07/14 04:14:14;;;;;;;15.40;14.07;;;;;;;21.63;72.84;100891.94;3584362;40;20225;-79
2021/07/14 04:16:40;;;;;;;10.40;9.50;;;;;;;21.65;72.70;100879.72;3594481;40;20607;-81
2021/07/14 04:19:05;;;;;;;16.63;14.95;;;;;;;21.67;73.13;100882.28;3594001;40;20245;-81
2021/07/14 04:21:30;;;;;;;17.47;14.60;;;;;;;21.59;73.10;100874.66;3584936;40;20252;-80
2021/07/14 04:23:56;;;;;;;11.93;10.73;;;;;;;21.60;73.01;100868.53;3594259;40;20246;-80
2021/07/14 04:26:22;;;;;;;12.30;11.17;;;;;;;21.62;73.01;100877.19;3594316;40;20229;-81
2021/07/14 04:28:48;;;;;;;12.07;10.93;;;;;;;21.71;72.57;100870.91;3592826;40;20634;-80
2021/07/14 04:31:13;;;;;;;14.37;12.83;;;;;;;21.67;73.39;100871.84;3593794;40;20236;-81
2021/07/14 04:33:41;;;;;;;15.37;13.73;;;;;;;21.65;73.56;100878.88;3593088;40;20233;-81
2021/07/14 04:36:06;;;;;;;13.10;11.90;;;;;;;21.63;73.51;100884.13;3593946;40;20244;-80
2021/07/14 04:38:31;;;;;;;14.23;12.83;;;;;;;21.66;73.45;100889.22;3593636;40;20630;-81
2021/07/14 04:40:57;;;;;;;12.77;11.77;;;;;;;21.67;73.20;100893.59;3592683;40;20259;-81
2021/07/14 04:43:22;;;;;;;11.87;10.67;;;;;;;21.68;73.61;100887.47;3580261;40;20257;-80
2021/07/14 04:45:47;;;;;;;12.67;11.37;;;;;;;21.69;73.87;100884.00;3584574;40;20233;-81
2021/07/14 04:48:12;;;;;;;13.67;12.33;;;;;;;21.73;73.54;100885.63;3593384;40;20233;-81
2021/07/14 04:50:38;;;;;;;15.57;14.17;;;;;;;21.67;73.71;100885.75;3593736;40;20213;-79
2021/07/14 04:53:03;;;;;;;14.60;11.77;;;;;;;21.65;73.48;100886.69;3593241;40;20509;-81
2021/07/14 04:55:28;;;;;;;12.23;11.13;;;;;;;21.64;73.74;100885.81;3592860;40;20229;-80
2021/07/14 04:57:54;;;;;;;15.00;13.70;;;;;;;21.63;73.95;100873.69;3583742;40;20239;-81
2021/07/14 05:00:20;;;;;;;13.40;12.20;;;;;;;21.66;73.93;100883.19;3593405;40;20240;-81
2021/07/14 05:02:45;;;;;;;11.67;10.70;;;;;;;21.66;73.46;100876.19;3593084;40;20249;-80
2021/07/14 05:05:15;;;;;;;12.43;11.27;;;;;;;21.66;73.83;100868.38;3592931;40;20236;-80
2021/07/14 05:07:41;;;;;;;13.40;12.13;;;;;;;21.64;74.11;100866.72;3583914;40;20233;-79
2021/07/14 05:10:08;;;;;;;13.13;11.83;;;;;;;21.64;74.36;100870.19;3592860;40;20236;-80
2021/07/14 05:12:33;;;;;;;12.53;11.43;;;;;;;21.65;74.14;100858.84;3592871;40;20281;-80
2021/07/14 05:14:58;;;;;;;15.03;13.60;;;;;;;21.68;74.41;100855.31;3593189;40;20221;-81
2021/07/14 05:17:23;;;;;;;14.07;12.90;;;;;;;21.67;74.56;100871.84;3593107;40;20229;-81
2021/07/14 05:19:49;;;;;;;13.33;12.13;;;;;;;21.67;74.67;100869.25;3592913;40;20565;-80
2021/07/14 05:22:14;;;;;;;12.77;11.47;;;;;;;21.68;74.83;100865.72;3584114;40;20237;-80
2021/07/14 05:24:41;;;;;;;13.60;12.37;;;;;;;21.68;74.99;100864.00;3592322;40;20225;-81
2021/07/14 05:27:06;;;;;;;12.90;11.67;;;;;;;21.69;75.12;100873.56;3592695;40;20258;-79
2021/07/14 05:29:32;;;;;;;12.17;11.07;;;;;;;21.70;75.01;100875.25;3591315;40;20237;-80
2021/07/14 05:31:57;;;;;;;13.33;12.10;;;;;;;21.68;74.79;100871.81;3591957;40;20264;-81
2021/07/14 05:34:22;;;;;;;14.57;13.20;;;;;;;21.65;75.29;100869.28;3593178;40;20654;-81
2021/07/14 05:36:48;;;;;;;13.33;12.20;;;;;;;21.67;75.20;100866.63;3584094;40;20245;-81
2021/07/14 05:39:14;;;;;;;13.47;12.17;;;;;;;21.65;75.75;100858.84;3583969;40;20612;-81
2021/07/14 05:41:39;;;;;;;12.93;11.83;;;;;;;21.65;75.86;100861.47;3593576;40;20646;-79
2021/07/14 05:44:04;;;;;;;12.97;11.80;;;;;;;21.59;76.08;100861.63;3593866;40;20323;-82
2021/07/14 05:46:30;;;;;;;15.73;14.33;;;;;;;21.55;76.29;100854.78;3593736;40;20225;-81
2021/07/14 05:49:00;;;;;;;14.63;13.33;;;;;;;21.64;75.79;100833.69;3593436;40;20229;-81
2021/07/14 05:51:25;;;;;;;15.47;14.00;;;;;;;21.71;75.45;100818.78;3593690;40;20326;-81
2021/07/14 05:53:50;;;;;;;15.47;14.00;;;;;;;21.78;74.90;100813.34;3593562;40;20230;-81
2021/07/14 05:56:16;;;;;;;11.63;10.63;;;;;;;21.69;75.50;100815.38;3593686;40;20237;-80
2021/07/14 05:58:41;;;;;;;12.83;11.67;;;;;;;21.60;76.16;100841.63;3593978;40;20488;-81
2021/07/14 06:01:09;;;;;;;14.57;13.17;;;;;;;21.52;76.50;100838.38;3595350;40;20233;-82
2021/07/14 06:03:34;;;;;;;15.57;13.73;;;;;;;21.62;76.34;100816.38;3595867;40;20499;-81
2021/07/14 06:05:59;;;;;;;14.80;13.30;;;;;;;21.49;77.10;100821.06;3594605;40;20216;-81
2021/07/14 06:08:25;;;;;;;12.87;11.77;;;;;;;21.46;76.92;100821.13;3594264;40;20229;-81
2021/07/14 06:10:50;;;;;;;17.30;15.50;;;;;;;21.53;77.03;100809.66;3594565;40;20243;-80
2021/07/14 06:13:15;;;;;;;15.47;14.03;;;;;;;21.71;75.76;100797.91;3594634;40;20253;-80
2021/07/14 06:15:41;;;;;;;14.13;12.77;;;;;;;21.66;75.82;100789.34;3595055;40;20226;-80
2021/07/14 06:18:06;;;;;;;16.17;14.57;;;;;;;21.70;75.79;100776.19;3594646;40;20209;-81
2021/07/14 06:20:31;;;;;;;17.07;15.43;;;;;;;21.68;75.45;100775.34;3594607;40;20233;-80
2021/07/14 06:22:57;;;;;;;15.80;14.30;;;;;;;21.74;74.99;100770.00;3594566;40;20626;-82
2021/07/14 06:25:22;;;;;;;18.63;15.77;;;;;;;21.70;75.63;100773.59;3594528;40;20241;-81
2021/07/14 06:27:47;;;;;;;16.57;14.77;;;;;;;21.64;75.47;100780.69;3585482;40;20546;-80
2021/07/14 06:30:14;;;;;;;13.53;12.27;;;;;;;21.59;75.83;100785.16;3594458;40;20244;-81
2021/07/14 06:32:41;;;;;;;16.80;15.23;;;;;;;21.56;76.36;100788.69;3594090;40;20237;-80
2021/07/14 06:35:08;;;;;;;19.55;17.65;;;;;;;21.44;77.45;100791.66;3594102;40;20229;-81
2021/07/14 06:37:34;;;;;;;16.03;14.33;;;;;;;21.48;77.34;100789.81;3594555;40;20229;-81
2021/07/14 06:40:00;;;;;;;16.90;15.20;;;;;;;21.48;77.36;100795.03;3593885;40;20217;-79
2021/07/14 06:42:25;;;;;;;15.07;13.63;;;;;;;21.52;77.00;100794.88;3594682;40;20237;-82
2021/07/14 06:44:51;;;;;;;15.50;13.57;;;;;;;21.58;76.99;100793.88;3593247;40;20240;-81
2021/07/14 06:47:17;;;;;;;17.07;15.47;;;;;;;21.65;76.91;100796.28;3593991;40;20298;-80
2021/07/14 06:49:43;;;;;;;16.07;14.47;;;;;;;21.68;77.22;100795.34;3594237;40;20244;-81
2021/07/14 06:52:08;;;;;;;17.83;15.97;;;;;;;21.76;77.12;100802.13;3593610;40;20240;-81
2021/07/14 06:54:34;;;;;;;15.03;13.60;;;;;;;21.85;77.05;100788.84;3593202;40;20236;-80
2021/07/14 06:57:00;;;;;;;15.77;14.30;;;;;;;21.96;77.40;100785.91;3594206;40;20233;-80
2021/07/14 06:59:25;;;;;;;16.83;15.17;;;;;;;22.04;76.44;100795.25;3584627;40;20233;-80
2021/07/14 07:01:50;;;;;;;16.13;14.63;;;;;;;22.10;76.54;100795.06;3593396;40;20268;-81
2021/07/14 07:04:16;;;;;;;12.37;11.23;;;;;;;22.18;75.83;100798.31;3593763;40;20306;-81
2021/07/14 07:06:41;;;;;;;11.17;10.23;;;;;;;22.32;75.81;100799.69;3593683;40;20237;-81
2021/07/14 07:09:06;;;;;;;12.83;11.63;;;;;;;22.42;75.27;100810.66;3593431;40;20281;-80
2021/07/14 07:11:34;;;;;;;14.63;13.23;;;;;;;22.58;74.80;100805.00;3593272;40;20295;-81
2021/07/14 07:14:01;;;;;;;12.65;11.55;;;;;;;22.59;74.60;100802.34;3593707;40;20213;-80
2021/07/14 07:16:27;;;;;;;15.68;14.18;;;;;;;22.62;74.74;100802.28;3592949;40;20277;-79
2021/07/14 07:18:52;;;;;;;13.98;12.68;;;;;;;22.62;74.88;100804.00;3593983;40;20673;-81
2021/07/14 07:21:17;;;;;;;13.47;12.27;;;;;;;22.58;74.54;100800.66;3593718;40;20233;-81
2021/07/14 07:23:45;;;;;;;13.40;12.23;;;;;;;22.58;74.87;100807.59;3593635;40;20345;-80
2021/07/14 07:26:14;;;;;;;14.35;12.95;;;;;;;22.65;74.57;100815.22;3594217;40;20221;-81
2021/07/14 07:28:41;;;;;;;12.57;11.32;;;;;;;22.77;74.61;100803.53;3584545;40;20596;-81
2021/07/14 07:31:09;;;;;;;15.80;14.32;;;;;;;22.93;75.57;100808.22;3593707;40;20221;-80
2021/07/14 07:33:35;;;;;;;14.75;13.35;;;;;;;23.09;75.05;100804.25;3584170;40;20228;-81
2021/07/14 07:36:01;;;;;;;13.70;12.45;;;;;;;23.31;74.30;100792.22;3593561;40;20307;-79
2021/07/14 07:38:26;;;;;;;13.73;12.32;;;;;;;23.58;74.46;100798.28;3584967;40;20252;-80
2021/07/14 07:40:53;;;;;;;12.85;11.65;;;;;;;23.80;73.63;100791.38;3584134;40;20229;-80
2021/07/14 07:43:20;;;;;;;14.30;13.00;;;;;;;23.97;72.34;100795.13;3593992;40;20271;-81
2021/07/14 07:45:45;;;;;;;17.58;15.75;;;;;;;24.24;71.94;100795.88;3593197;40;20299;-81
2021/07/14 07:48:11;;;;;;;13.10;11.70;;;;;;;24.43;70.85;100781.19;3594029;40;20233;-82
2021/07/14 07:50:36;;;;;;;13.65;12.23;;;;;;;24.66;69.63;100789.91;3593736;40;20229;-80
2021/07/14 07:53:01;;;;;;;12.68;11.43;;;;;;;24.90;69.48;100790.69;3594179;40;20255;-81
2021/07/14 07:55:26;;;;;;;15.70;13.60;;;;;;;24.93;67.57;100786.19;3594369;40;20280;-81
2021/07/14 07:57:52;;;;;;;18.25;14.05;;;;;;;24.92;67.89;100794.13;3593769;40;20240;-81
2021/07/14 08:00:20;;;;;;;16.63;15.10;;;;;;;24.86;67.50;100789.97;3594177;40;20217;-81
2021/07/14 08:02:46;;;;;;;13.27;12.20;;;;;;;24.92;69.45;100797.59;3593825;40;20557;-80
2021/07/14 08:05:12;;;;;;;14.93;13.52;;;;;;;24.96;68.08;100791.31;3585057;40;20240;-81
2021/07/14 08:07:37;;;;;;;14.40;12.90;;;;;;;24.99;68.71;100798.19;3584881;40;20228;-81
2021/07/14 08:10:05;;;;;;;13.85;12.60;;;;;;;25.01;68.99;100799.81;3593631;40;20249;-81
2021/07/14 08:12:30;;;;;;;15.65;14.18;;;;;;;25.02;68.09;100792.84;3594262;40;20592;-81
2021/07/14 08:14:56;;;;;;;15.55;14.05;;;;;;;25.12;68.08;100795.03;3593327;40;20229;-81
2021/07/14 08:17:21;;;;;;;15.32;13.90;;;;;;;25.16;68.08;100796.63;3594138;40;20224;-81
2021/07/14 08:19:47;;;;;;;15.45;14.13;;;;;;;25.17;67.52;100795.69;3580730;40;20236;-82
2021/07/14 08:22:12;;;;;;;13.80;12.48;;;;;;;25.20;67.09;100789.47;3593506;40;20302;-82
2021/07/14 08:24:38;;;;;;;12.25;11.25;;;;;;;25.23;67.54;100789.34;3593406;40;20241;-81
2021/07/14 08:27:03;;;;;;;13.55;12.30;;;;;;;25.27;67.31;100791.78;3593710;40;20233;-81
2021/07/14 08:29:28;;;;;;;14.10;12.90;;;;;;;25.33;66.55;100785.47;3593881;40;20233;-80
2021/07/14 08:31:54;;;;;;;13.45;12.15;;;;;;;25.41;66.54;100799.09;3593622;40;20245;-80
2021/07/14 08:34:20;;;;;;;15.95;14.40;;;;;;;25.42;67.32;100799.03;3593425;40;20240;-81
2021/07/14 08:36:45;;;;;;;16.08;14.57;;;;;;;25.37;66.33;100790.50;3593823;40;20221;-82
2021/07/14 08:39:11;;;;;;;13.57;12.35;;;;;;;25.38;66.97;100794.84;3593620;40;20232;-80
2021/07/14 08:41:41;;;;;;;16.45;14.80;;;;;;;25.37;65.42;100795.75;3584368;40;20265;-81
2021/07/14 08:44:07;;;;;;;13.82;12.43;;;;;;;25.32;66.69;100791.63;3584670;40;20585;-81
2021/07/14 08:46:35;;;;;;;12.00;10.82;;;;;;;25.28;66.94;100793.50;3594179;40;20297;-81
2021/07/14 08:49:03;;;;;;;17.88;15.98;;;;;;;25.20;67.03;100792.94;3593558;40;20259;-81
2021/07/14 08:51:32;;;;;;;15.27;13.77;;;;;;;25.18;66.81;100800.00;3584421;40;20252;-80
2021/07/14 08:53:58;;;;;;;15.68;14.13;;;;;;;25.27;66.78;100786.56;3593909;40;20232;-80
2021/07/14 08:56:24;;;;;;;16.92;15.32;;;;;;;25.25;66.56;100798.00;3588900;40;20226;-81
2021/07/14 08:58:49;;;;;;;15.25;13.80;;;;;;;25.29;67.30;100802.22;3587088;40;20225;-80
2021/07/14 09:01:15;;;;;;;11.75;10.65;;;;;;;25.33;66.74;100798.56;3584043;40;20226;-81
2021/07/14 09:03:40;;;;;;;15.35;13.85;;;;;;;25.32;66.13;100797.69;3583914;40;20241;-80
2021/07/14 09:06:07;;;;;;;11.43;10.43;;;;;;;25.33;66.93;100806.44;3591759;40;20584;-80
2021/07/14 09:08:32;;;;;;;11.85;10.73;;;;;;;25.36;67.76;100803.66;3593727;40;20221;-80
2021/07/14 09:10:57;;;;;;;15.98;14.57;;;;;;;25.26;66.83;100804.94;3583611;40;20744;-81
2021/07/14 09:13:37;;;;;;;12.60;11.50;;;;;;;25.31;66.88;100800.38;3593389;40;20249;-81
2021/07/14 09:16:04;;;;;;;14.95;13.65;;;;;;;25.27;66.48;100798.84;3593473;40;20295;-82
2021/07/14 09:18:31;;;;;;;15.90;14.50;;;;;;;25.27;66.46;100799.66;3593956;40;20265;-81
2021/07/14 09:20:58;;;;;;;14.00;12.82;;;;;;;25.35;66.78;100789.72;3592616;40;20224;-81
2021/07/14 09:23:28;;;;;;;14.70;12.55;;;;;;;25.42;66.30;100788.53;3593482;40;20302;-81
2021/07/14 09:25:59;;;;;;;15.45;14.05;;;;;;;25.43;66.89;100786.75;3583401;40;20238;-81
2021/07/14 09:28:29;;;;;;;13.35;12.18;;;;;;;25.40;66.65;100789.50;3593465;40;20664;-80
2021/07/14 09:31:00;;;;;;;14.43;13.02;;;;;;;25.40;66.39;100789.50;3592898;40;20253;-79
2021/07/14 09:33:26;;;;;;;14.75;13.48;;;;;;;25.35;66.91;100781.84;3593633;40;20253;-79
2021/07/14 09:35:53;;;;;;;11.65;10.65;;;;;;;25.35;67.37;100778.34;3594411;40;20234;-80
2021/07/14 09:38:21;;;;;;;13.80;12.52;;;;;;;25.32;67.51;100773.25;3595040;40;20270;-80
2021/07/14 09:40:51;;;;;;;11.77;10.70;;;;;;;25.36;67.30;100777.44;3594916;40;20241;-79
2021/07/14 09:43:19;;;;;;;14.75;13.43;;;;;;;25.45;67.85;100770.03;3595439;40;20253;-80
2021/07/14 09:45:52;;;;;;;14.75;13.30;;;;;;;25.58;66.77;100763.34;3595384;40;20309;-81
2021/07/14 09:48:23;;;;;;;14.93;13.63;;;;;;;25.81;66.51;100764.97;3595419;40;20247;-80
2021/07/14 09:50:55;;;;;;;13.45;12.15;;;;;;;26.27;64.99;100760.25;3595104;40;20260;-80
2021/07/14 09:53:23;;;;;;;15.15;13.75;;;;;;;26.46;63.66;100763.72;3585665;40;20248;-79
2021/07/14 09:55:53;;;;;;;13.50;12.25;;;;;;;26.54;63.66;100763.34;3595196;40;20232;-80
2021/07/14 09:58:30;;;;;;;12.00;11.00;;;;;;;26.74;62.90;100765.91;3595257;40;20233;-81
2021/07/14 10:00:58;;;;;;;12.65;11.55;;;;;;;26.98;64.11;100765.56;3595006;40;20227;-80
2021/07/14 10:03:32;;;;;;;10.43;9.50;;;;;;;27.27;62.17;100769.44;3595363;40;20766;-80
2021/07/14 10:06:03;;;;;;;11.55;10.45;;;;;;;27.56;60.67;100766.16;3585602;40;20244;-81
2021/07/14 10:08:29;;;;;;;12.68;11.48;;;;;;;27.66;60.73;100768.25;3593457;40;20236;-80
2021/07/14 10:11:21;;;;;;;12.80;11.70;;;;;;;27.75;60.82;100765.13;3595195;40;20222;-80
2021/07/14 10:13:51;;;;;;;11.95;10.85;;;;;;;27.77;61.27;100770.34;3595699;40;20237;-81
2021/07/14 10:16:19;;;;;;;13.90;12.70;;;;;;;27.76;61.08;100763.38;3591476;40;20591;-80
2021/07/14 10:18:55;;;;;;;13.07;11.95;;;;;;;27.60;61.19;100767.72;3586146;40;20284;-80
2021/07/14 10:21:21;;;;;;;12.38;11.38;;;;;;;27.52;61.61;100754.94;3594267;40;20244;-80
2021/07/14 10:23:48;;;;;;;12.82;11.75;;;;;;;27.38;62.92;100762.69;3595525;40;20701;-81
2021/07/14 10:26:14;;;;;;;11.82;10.82;;;;;;;27.24;62.01;100770.44;3595698;40;20241;-80
2021/07/14 10:28:41;;;;;;;12.40;11.40;;;;;;;27.23;62.58;100770.50;3586339;40;20256;-80
2021/07/14 10:31:08;;;;;;;13.05;11.23;;;;;;;27.35;62.27;100769.91;3586519;40;20234;-81
2021/07/14 10:33:34;;;;;;;11.52;10.63;;;;;;;27.45;61.45;100760.59;3595563;40;20291;-80
2021/07/14 10:36:01;;;;;;;11.27;10.38;;;;;;;27.50;62.48;100754.16;3595701;40;20233;-81
2021/07/14 10:38:28;;;;;;;12.20;11.10;;;;;;;27.58;62.35;100744.09;3595710;40;20531;-81
2021/07/14 10:40:56;;;;;;;12.82;11.73;;;;;;;27.81;60.93;100746.41;3594832;40;20647;-81
2021/07/14 10:43:25;;;;;;;11.05;10.15;;;;;;;28.08;60.43;100736.19;3595773;40;20611;-80
2021/07/14 10:45:51;;;;;;;12.48;11.30;;;;;;;28.22;59.59;100744.19;3594686;40;20291;-81
2021/07/14 10:48:20;;;;;;;12.18;10.93;;;;;;;28.31;59.37;100752.44;3586234;40;20249;-80
2021/07/14 10:50:47;;;;;;;12.10;10.88;;;;;;;28.44;58.92;100750.00;3595567;40;20513;-82
2021/07/14 10:53:13;;;;;;;11.05;10.23;;;;;;;28.83;59.02;100745.97;3595877;40;20244;-81
2021/07/14 10:55:41;;;;;;;12.18;10.75;;;;;;;29.17;57.65;100747.56;3595227;40;20237;-81
2021/07/14 10:58:08;;;;;;;12.88;11.77;;;;;;;29.36;55.95;100745.53;3595877;40;20587;-81
2021/07/14 11:00:45;;;;;;;13.30;12.20;;;;;;;29.28;55.24;100746.00;3595140;40;20214;-80
2021/07/14 11:03:40;;;;;;;13.15;12.00;;;;;;;29.28;55.89;100740.72;3594987;40;20249;-81
2021/07/14 11:06:07;;;;;;;14.52;13.05;;;;;;;29.07;54.54;100736.72;3594827;40;20257;-80
2021/07/14 11:08:49;;;;;;;12.40;11.40;;;;;;;29.30;55.29;100738.00;3595386;40;20506;-81
2021/07/14 11:11:20;;;;;;;13.73;12.27;;;;;;;29.50;54.32;100742.91;3594912;40;20630;-81
2021/07/14 11:14:09;;;;;;;14.23;12.82;;;;;;;29.61;53.84;100733.44;3595356;40;20244;-81
2021/07/14 11:16:36;;;;;;;14.55;13.13;;;;;;;29.94;53.02;100731.38;3595386;40;20236;-81
2021/07/14 11:19:12;;;;;;;13.75;12.45;;;;;;;30.10;52.15;100729.50;3594801;40;20221;-82